createdAt,value
2018-06-18T00:00:18.816Z,15.30
2018-06-18T00:02:47.041Z,15.30
2018-06-18T00:05:15.229Z,15.30
2018-06-18T00:07:43.427Z,15.30
2018-06-18T00:10:11.617Z,15.20
2018-06-18T00:12:39.819Z,15.20
2018-06-18T00:15:07.991Z,15.20
2018-06-18T00:17:36.186Z,15.20
2018-06-18T00:20:04.433Z,15.20
2018-06-18T00:22:32.618Z,15.20
2018-06-18T00:25:00.801Z,15.20
2018-06-18T00:27:28.984Z,15.10
2018-06-18T00:29:57.177Z,15.10
2018-06-18T00:32:25.378Z,15.00
2018-06-18T00:34:53.542Z,15.00
2018-06-18T00:37:21.762Z,15.00
2018-06-18T00:39:49.934Z,15.00
2018-06-18T00:42:18.145Z,15.00
2018-06-18T00:44:46.345Z,15.00
2018-06-18T00:47:14.558Z,15.00
2018-06-18T00:49:42.753Z,14.90
2018-06-18T00:52:10.958Z,14.90
2018-06-18T00:54:39.544Z,14.90
2018-06-18T00:57:07.722Z,14.80
2018-06-18T00:59:35.924Z,14.80
2018-06-18T01:02:04.097Z,14.80
2018-06-18T01:04:32.297Z,14.70
2018-06-18T01:07:00.468Z,14.70
2018-06-18T01:09:28.677Z,14.70
2018-06-18T01:11:56.857Z,14.70
2018-06-18T01:14:25.038Z,14.70
2018-06-18T01:16:53.205Z,14.60
2018-06-18T01:19:21.388Z,14.60
2018-06-18T01:21:49.597Z,14.60
2018-06-18T01:24:52.117Z,14.50
2018-06-18T01:27:20.344Z,14.50
2018-06-18T01:29:48.518Z,14.50
2018-06-18T01:32:16.721Z,14.50
2018-06-18T01:34:44.901Z,14.50
2018-06-18T01:37:13.060Z,14.40
2018-06-18T01:39:41.293Z,14.40
2018-06-18T01:42:09.404Z,14.40
2018-06-18T01:47:05.778Z,14.40
2018-06-18T01:49:33.969Z,14.40
2018-06-18T01:52:02.136Z,14.30
2018-06-18T01:54:30.353Z,14.30
2018-06-18T01:56:58.516Z,14.30
2018-06-18T01:59:26.697Z,14.30
2018-06-18T02:01:55.268Z,14.30
2018-06-18T02:04:23.460Z,14.30
2018-06-18T02:06:51.674Z,14.30
2018-06-18T02:09:19.850Z,14.30
2018-06-18T02:11:48.034Z,14.30
2018-06-18T02:14:16.233Z,14.30
2018-06-18T02:16:44.432Z,14.30
2018-06-18T02:19:12.629Z,14.30
2018-06-18T02:21:40.809Z,14.30
2018-06-18T02:24:08.988Z,14.20
2018-06-18T02:26:37.174Z,14.20
2018-06-18T02:29:10.822Z,14.10
2018-06-18T02:31:44.461Z,14.10
2018-06-18T02:34:18.159Z,14.00
2018-06-18T02:36:51.752Z,14.00
2018-06-18T02:39:19.937Z,13.90
2018-06-18T02:41:48.113Z,13.80
2018-06-18T02:44:16.313Z,13.80
2018-06-18T02:46:44.819Z,13.70
2018-06-18T02:49:13.019Z,13.60
2018-06-18T02:51:41.241Z,13.60
2018-06-18T02:54:09.561Z,13.50
2018-06-18T02:56:55.190Z,13.40
2018-06-18T02:59:23.348Z,13.40
2018-06-18T03:01:51.520Z,13.30
2018-06-18T03:04:19.700Z,13.30
2018-06-18T03:06:47.880Z,13.20
2018-06-18T03:09:16.063Z,13.10
2018-06-18T03:11:44.583Z,13.10
2018-06-18T03:14:12.782Z,13.00
2018-06-18T03:16:40.961Z,12.90
2018-06-18T03:19:14.538Z,12.90
2018-06-18T03:21:48.276Z,12.80
2018-06-18T03:24:21.822Z,12.70
2018-06-18T03:27:55.824Z,12.70
2018-06-18T03:30:24.037Z,12.70
2018-06-18T03:32:52.238Z,12.70
2018-06-18T03:35:20.437Z,12.70
2018-06-18T03:37:48.863Z,12.70
2018-06-18T03:40:17.044Z,12.70
2018-06-18T03:42:45.505Z,12.70
2018-06-18T03:45:23.057Z,12.70
2018-06-18T03:47:51.313Z,12.70
2018-06-18T03:50:19.517Z,12.70
2018-06-18T03:52:47.702Z,12.70
2018-06-18T03:55:36.553Z,12.70
2018-06-18T03:58:07.673Z,12.70
2018-06-18T04:00:45.745Z,12.70
2018-06-18T04:03:19.244Z,12.80
2018-06-18T04:05:52.805Z,12.80
2018-06-18T04:08:20.993Z,12.80
2018-06-18T04:10:54.626Z,12.90
2018-06-18T04:13:23.429Z,12.90
2018-06-18T04:15:51.613Z,13.00
2018-06-18T04:18:19.773Z,13.00
2018-06-18T04:20:49.224Z,13.10
2018-06-18T04:23:17.590Z,13.10
2018-06-18T04:25:45.978Z,13.20
2018-06-18T04:28:14.178Z,13.20
2018-06-18T04:30:44.121Z,13.30
2018-06-18T04:33:13.609Z,13.30
2018-06-18T04:35:41.782Z,13.30
2018-06-18T04:38:09.955Z,13.40
2018-06-18T04:40:38.142Z,13.50
2018-06-18T04:43:11.691Z,13.50
2018-06-18T04:45:46.086Z,13.50
2018-06-18T04:48:19.682Z,13.60
2018-06-18T04:50:53.254Z,13.60
2018-06-18T04:53:21.438Z,13.70
2018-06-18T04:55:49.633Z,13.70
2018-06-18T04:58:17.806Z,13.80
2018-06-18T05:01:21.365Z,13.80
2018-06-18T05:03:50.832Z,13.90
2018-06-18T05:06:19.106Z,13.90
2018-06-18T05:09:08.984Z,14.00
2018-06-18T05:11:37.288Z,14.00
2018-06-18T05:14:05.548Z,14.00
2018-06-18T05:16:33.839Z,14.00
2018-06-18T05:19:02.025Z,14.00
2018-06-18T05:21:30.205Z,14.10
2018-06-18T05:23:58.369Z,14.10
2018-06-18T05:26:26.588Z,14.10
2018-06-18T05:28:54.782Z,14.10
2018-06-18T05:31:22.962Z,14.10
2018-06-18T05:33:51.162Z,14.20
2018-06-18T05:36:19.366Z,14.20
2018-06-18T05:38:47.567Z,14.20
2018-06-18T05:41:15.850Z,14.20
2018-06-18T05:43:44.026Z,14.20
2018-06-18T05:46:12.226Z,14.20
2018-06-18T05:48:40.417Z,14.20
2018-06-18T05:51:08.593Z,14.10
2018-06-18T05:53:36.787Z,14.10
2018-06-18T05:56:04.999Z,14.10
2018-06-18T05:58:33.230Z,14.10
2018-06-18T06:01:01.385Z,14.10
2018-06-18T06:03:29.580Z,14.10
2018-06-18T06:05:57.793Z,14.10
2018-06-18T06:08:25.985Z,14.10
2018-06-18T06:10:54.173Z,14.10
2018-06-18T06:13:22.357Z,14.10
2018-06-18T06:15:50.577Z,14.20
2018-06-18T06:18:18.733Z,14.20
2018-06-18T06:20:50.141Z,14.30
2018-06-18T06:23:18.483Z,14.30
2018-06-18T06:25:46.659Z,14.40
2018-06-18T06:28:14.922Z,14.50
2018-06-18T06:30:43.117Z,14.50
2018-06-18T06:33:11.315Z,14.60
2018-06-18T06:35:40.982Z,14.60
2018-06-18T06:38:09.194Z,14.70
2018-06-18T06:40:37.378Z,14.70
2018-06-18T06:43:05.704Z,14.80
2018-06-18T06:45:33.890Z,14.80
2018-06-18T06:48:02.093Z,14.90
2018-06-18T06:50:30.269Z,15.00
2018-06-18T06:52:58.450Z,15.20
2018-06-18T06:55:27.017Z,15.30
2018-06-18T06:57:55.272Z,15.50
2018-06-18T07:00:23.450Z,15.60
2018-06-18T07:02:51.682Z,15.80
2018-06-18T07:05:19.857Z,15.90
2018-06-18T07:07:48.046Z,16.00
2018-06-18T07:10:16.229Z,16.10
2018-06-18T07:12:44.425Z,16.10
2018-06-18T07:15:12.586Z,16.10
2018-06-18T07:17:41.601Z,16.20
2018-06-18T07:20:09.801Z,16.20
2018-06-18T07:22:37.998Z,16.30
2018-06-18T07:25:06.158Z,16.40
2018-06-18T07:27:34.481Z,16.40
2018-06-18T07:30:02.705Z,16.50
2018-06-18T07:32:30.917Z,16.60
2018-06-18T07:34:59.091Z,16.60
2018-06-18T07:37:27.296Z,16.60
2018-06-18T07:39:55.697Z,16.60
2018-06-18T07:42:23.873Z,16.60
2018-06-18T07:44:52.070Z,16.50
2018-06-18T07:47:20.249Z,16.50
2018-06-18T07:49:48.429Z,16.60
2018-06-18T07:52:16.620Z,16.60
2018-06-18T07:54:44.792Z,16.80
2018-06-18T07:57:12.999Z,16.90
2018-06-18T07:59:41.224Z,17.00
2018-06-18T08:02:09.410Z,17.10
2018-06-18T08:07:05.917Z,17.30
2018-06-18T08:09:34.161Z,17.40
2018-06-18T08:12:02.320Z,17.40
2018-06-18T08:14:30.518Z,17.40
2018-06-18T08:16:58.689Z,17.40
2018-06-18T08:19:26.897Z,17.50
2018-06-18T08:21:55.079Z,17.50
2018-06-18T08:24:23.287Z,17.60
2018-06-18T08:26:51.464Z,17.80
2018-06-18T08:29:19.654Z,18.00
2018-06-18T08:31:47.839Z,18.10
2018-06-18T08:34:16.038Z,18.30
2018-06-18T08:36:44.218Z,18.30
2018-06-18T08:39:12.432Z,18.20
2018-06-18T08:41:40.648Z,18.10
2018-06-18T08:44:08.825Z,18.00
2018-06-18T08:46:37.097Z,18.00
2018-06-18T08:49:06.692Z,18.00
2018-06-18T08:51:40.366Z,18.20
2018-06-18T08:54:14.102Z,18.30
2018-06-18T08:56:47.621Z,18.40
2018-06-18T08:59:21.357Z,18.40
2018-06-18T09:01:49.993Z,18.50
2018-06-18T09:04:23.468Z,18.40
2018-06-18T09:06:51.658Z,18.40
2018-06-18T09:09:19.879Z,18.50
2018-06-18T09:11:48.033Z,18.50
2018-06-18T09:14:16.226Z,18.60
2018-06-18T09:19:12.374Z,18.80
2018-06-18T09:21:40.546Z,18.70
2018-06-18T09:24:08.751Z,18.70
2018-06-18T09:26:36.929Z,18.80
2018-06-18T09:29:05.157Z,19.00
2018-06-18T09:31:33.330Z,19.10
2018-06-18T09:34:01.522Z,19.20
2018-06-18T09:36:29.708Z,19.30
2018-06-18T09:38:57.899Z,19.40
2018-06-18T09:41:26.073Z,19.40
2018-06-18T09:43:54.302Z,19.40
2018-06-18T09:46:22.457Z,19.50
2018-06-18T09:49:53.618Z,19.50
2018-06-18T09:52:27.214Z,19.40
2018-06-18T09:55:00.873Z,19.30
2018-06-18T09:57:34.269Z,19.30
2018-06-18T10:00:07.047Z,19.40
2018-06-18T10:02:35.225Z,19.60
2018-06-18T10:05:03.416Z,19.80
2018-06-18T10:07:31.597Z,20.00
2018-06-18T10:09:59.789Z,20.10
2018-06-18T10:12:27.972Z,20.10
2018-06-18T10:14:56.146Z,20.10
2018-06-18T10:17:24.319Z,20.00
2018-06-18T10:19:52.867Z,19.90
2018-06-18T10:22:21.098Z,19.80
2018-06-18T10:24:49.365Z,19.80
2018-06-18T10:27:17.570Z,19.80
2018-06-18T10:29:45.842Z,20.00
2018-06-18T10:32:19.400Z,20.20
2018-06-18T10:34:53.010Z,20.40
2018-06-18T10:37:26.519Z,20.50
2018-06-18T10:40:00.206Z,20.70
2018-06-18T10:42:33.739Z,20.80
2018-06-18T10:45:01.930Z,20.80
2018-06-18T10:47:30.108Z,20.90
2018-06-18T10:49:58.361Z,20.80
2018-06-18T10:52:26.474Z,20.80
2018-06-18T10:54:54.665Z,20.80
2018-06-18T10:57:22.838Z,20.90
2018-06-18T10:59:51.073Z,21.00
2018-06-18T11:02:19.226Z,21.10
2018-06-18T11:04:52.900Z,21.20
2018-06-18T11:07:21.049Z,21.30
2018-06-18T11:09:49.328Z,21.50
2018-06-18T11:12:17.492Z,21.50
2018-06-18T11:14:45.677Z,21.50
2018-06-18T11:17:19.441Z,21.40
2018-06-18T11:19:52.970Z,21.40
2018-06-18T11:22:25.377Z,21.30
2018-06-18T11:27:06.464Z,21.40
2018-06-18T11:29:34.532Z,21.50
2018-06-18T11:32:02.724Z,21.70
2018-06-18T11:34:30.911Z,21.80
2018-06-18T11:39:27.103Z,22.00
2018-06-18T11:41:55.286Z,22.00
2018-06-18T11:44:23.388Z,22.10
2018-06-18T11:46:51.553Z,22.30
2018-06-18T11:49:19.728Z,22.30
2018-06-18T11:51:47.905Z,22.30
2018-06-18T11:54:16.099Z,22.30
2018-06-18T11:56:44.258Z,22.40
2018-06-18T11:59:17.787Z,22.40
2018-06-18T12:01:51.456Z,22.50
2018-06-18T12:04:25.355Z,22.50
2018-06-18T12:06:59.148Z,22.70
2018-06-18T12:09:29.071Z,22.80
2018-06-18T12:11:57.258Z,22.90
2018-06-18T12:14:25.490Z,23.00
2018-06-18T12:16:53.676Z,23.00
2018-06-18T12:19:21.916Z,23.10
2018-06-18T12:21:50.122Z,23.10
2018-06-18T12:24:18.331Z,23.10
2018-06-18T12:26:46.549Z,22.90
2018-06-18T12:29:14.967Z,22.80
2018-06-18T12:31:43.145Z,22.60
2018-06-18T12:34:11.329Z,22.70
2018-06-18T12:36:39.652Z,23.00
2018-06-18T12:39:09.707Z,23.10
2018-06-18T12:41:40.329Z,23.10
2018-06-18T12:44:08.517Z,23.20
2018-06-18T12:46:42.122Z,23.30
2018-06-18T12:49:15.569Z,23.40
2018-06-18T12:51:49.222Z,23.50
2018-06-18T12:54:22.797Z,23.60
2018-06-18T12:56:56.670Z,23.40
2018-06-18T12:59:24.838Z,23.30
2018-06-18T13:01:56.826Z,23.20
2018-06-18T13:04:25.011Z,23.20
2018-06-18T13:06:53.233Z,23.20
2018-06-18T13:09:21.417Z,23.20
2018-06-18T13:11:49.598Z,23.20
2018-06-18T13:14:17.796Z,23.10
2018-06-18T13:16:45.992Z,23.20
2018-06-18T13:19:14.183Z,23.40
2018-06-18T13:21:42.366Z,23.50
2018-06-18T13:24:10.532Z,23.70
2018-06-18T13:26:38.751Z,23.80
2018-06-18T13:29:06.921Z,24.00
2018-06-18T13:31:35.125Z,23.90
2018-06-18T13:34:03.298Z,24.00
2018-06-18T13:36:31.516Z,23.80
2018-06-18T13:39:05.008Z,23.70
2018-06-18T13:41:38.649Z,23.50
2018-06-18T13:44:12.239Z,23.50
2018-06-18T13:46:45.697Z,23.60
2018-06-18T13:49:13.874Z,23.80
2018-06-18T13:51:42.129Z,24.00
2018-06-18T13:54:10.300Z,24.20
2018-06-18T13:56:38.477Z,24.40
2018-06-18T13:59:06.638Z,24.50
2018-06-18T14:01:34.845Z,24.60
2018-06-18T14:04:03.034Z,24.70
2018-06-18T14:06:31.219Z,24.80
2018-06-18T14:08:59.400Z,24.90
2018-06-18T14:11:27.643Z,25.00
2018-06-18T14:13:55.925Z,25.00
2018-06-18T14:16:23.994Z,25.10
2018-06-18T14:18:52.179Z,25.00
2018-06-18T14:21:20.346Z,24.80
2018-06-18T14:23:48.562Z,24.80
2018-06-18T14:28:44.706Z,24.60
2018-06-18T14:31:18.362Z,24.30
2018-06-18T14:33:51.950Z,24.10
2018-06-18T14:36:25.681Z,23.90
2018-06-18T14:41:41.246Z,23.70
2018-06-18T14:44:09.440Z,23.90
2018-06-18T14:46:37.633Z,24.20
2018-06-18T14:49:05.797Z,24.50
2018-06-18T14:51:34.002Z,25.00
2018-06-18T14:54:02.214Z,25.40
2018-06-18T14:56:35.723Z,25.70
2018-06-18T14:59:11.196Z,25.70
2018-06-18T15:01:39.481Z,25.80
2018-06-18T15:04:07.727Z,25.90
2018-06-18T15:06:35.884Z,25.90
2018-06-18T15:09:06.034Z,26.00
2018-06-18T15:11:34.034Z,26.20
2018-06-18T15:14:02.281Z,26.40
2018-06-18T15:16:31.695Z,26.90
2018-06-18T15:19:01.009Z,28.10
2018-06-18T15:21:31.492Z,29.80
2018-06-18T15:24:01.472Z,31.60
2018-06-18T15:26:29.673Z,33.00
2018-06-18T15:28:57.873Z,34.50
2018-06-18T15:33:54.040Z,37.70
2018-06-18T15:36:22.274Z,39.10
2018-06-18T15:38:50.452Z,40.50
2018-06-18T15:41:18.908Z,41.70
2018-06-18T15:43:47.164Z,42.60
2018-06-18T15:46:15.293Z,43.20
2018-06-18T15:48:43.486Z,43.40
2018-06-18T15:51:11.694Z,43.60
2018-06-18T15:53:39.893Z,43.60
2018-06-18T15:56:08.146Z,42.30
2018-06-18T15:58:36.654Z,40.90
2018-06-18T16:01:04.824Z,39.20
2018-06-18T16:03:33.015Z,37.10
2018-06-18T16:06:01.274Z,35.20
2018-06-18T16:08:29.473Z,33.50
2018-06-18T16:10:57.667Z,32.00
2018-06-18T16:13:25.860Z,30.80
2018-06-18T16:15:54.041Z,30.00
2018-06-18T16:18:22.213Z,29.30
2018-06-18T16:20:50.497Z,28.70
2018-06-18T16:23:18.682Z,28.30
2018-06-18T16:25:46.874Z,28.00
2018-06-18T16:28:15.054Z,27.70
2018-06-18T16:30:43.266Z,27.40
2018-06-18T16:33:11.457Z,27.10
2018-06-18T16:35:39.653Z,26.90
2018-06-18T16:38:07.831Z,26.70
2018-06-18T16:40:36.041Z,26.60
2018-06-18T16:43:04.316Z,26.40
2018-06-18T16:45:32.498Z,26.20
2018-06-18T16:48:00.840Z,26.20
2018-06-18T16:50:29.046Z,26.00
2018-06-18T16:52:57.242Z,25.90
2018-06-18T16:55:25.431Z,25.70
2018-06-18T16:57:53.729Z,25.60
2018-06-18T17:00:21.923Z,25.60
2018-06-18T17:02:50.182Z,25.40
2018-06-18T17:05:18.286Z,25.20
2018-06-18T17:07:46.457Z,25.00
2018-06-18T17:10:14.654Z,24.90
2018-06-18T17:12:42.862Z,24.80
2018-06-18T17:15:11.418Z,24.70
2018-06-18T17:17:39.584Z,24.50
2018-06-18T17:20:07.776Z,24.50
2018-06-18T17:22:35.937Z,24.40
2018-06-18T17:25:04.171Z,24.20
2018-06-18T17:27:32.361Z,24.10
2018-06-18T17:30:00.594Z,24.00
2018-06-18T17:32:28.799Z,23.80
2018-06-18T17:34:57.009Z,23.80
2018-06-18T17:37:25.203Z,23.70
2018-06-18T17:39:53.565Z,23.60
2018-06-18T17:42:21.787Z,23.50
2018-06-18T17:44:49.976Z,23.40
2018-06-18T17:47:18.167Z,23.30
2018-06-18T17:49:46.391Z,23.20
2018-06-18T17:52:14.558Z,23.10
2018-06-18T17:54:42.950Z,22.90
2018-06-18T17:57:11.165Z,22.80
2018-06-18T17:59:39.365Z,22.70
2018-06-18T18:02:07.541Z,22.50
2018-06-18T18:04:35.831Z,22.40
2018-06-18T18:07:04.201Z,22.20
2018-06-18T18:09:32.451Z,22.00
2018-06-18T18:12:00.661Z,21.90
2018-06-18T18:14:28.809Z,21.80
2018-06-18T18:16:57.023Z,21.60
2018-06-18T18:19:25.272Z,21.50
2018-06-18T18:21:53.569Z,21.40
2018-06-18T18:24:21.797Z,21.30
2018-06-18T18:26:49.965Z,21.20
2018-06-18T18:29:18.214Z,21.10
2018-06-18T18:31:46.508Z,21.00
2018-06-18T18:34:14.693Z,20.90
2018-06-18T18:36:42.942Z,20.80
2018-06-18T18:39:11.126Z,20.70
2018-06-18T18:41:39.844Z,20.60
2018-06-18T18:46:36.392Z,20.50
2018-06-18T18:49:04.577Z,20.40
2018-06-18T18:51:32.790Z,20.40
2018-06-18T18:54:01.056Z,20.30
2018-06-18T18:57:42.132Z,20.20
2018-06-18T19:00:10.307Z,20.10
2018-06-18T19:02:38.504Z,20.00
2018-06-18T19:05:06.675Z,19.90
2018-06-18T19:07:38.145Z,19.70
2018-06-18T19:10:21.508Z,19.60
2018-06-18T19:12:51.448Z,19.50
2018-06-18T19:15:20.693Z,19.40
2018-06-18T19:17:53.288Z,19.20
2018-06-18T19:20:27.066Z,19.10
2018-06-18T19:22:56.766Z,19.00
2018-06-18T19:25:25.805Z,18.90
2018-06-18T19:27:54.811Z,18.80
2018-06-18T19:30:24.012Z,18.80
2018-06-18T19:32:55.163Z,18.70
2018-06-18T19:35:24.748Z,18.70
2018-06-18T19:37:53.850Z,18.60
2018-06-18T19:40:22.880Z,18.50
2018-06-18T19:42:51.093Z,18.40
2018-06-18T19:45:20.992Z,18.30
2018-06-18T19:47:55.494Z,18.20
2018-06-18T19:50:23.701Z,18.10
2018-06-18T19:52:51.884Z,18.00
2018-06-18T19:55:22.118Z,18.00
2018-06-18T19:57:51.008Z,17.90
2018-06-18T20:00:19.711Z,17.80
2018-06-18T20:02:47.898Z,17.80
2018-06-18T20:05:16.116Z,17.70
2018-06-18T20:07:56.969Z,17.60
2018-06-18T20:10:25.271Z,17.50
2018-06-18T20:12:54.033Z,17.40
2018-06-18T20:15:22.449Z,17.30
2018-06-18T20:17:50.695Z,17.30
2018-06-18T20:20:19.198Z,17.20
2018-06-18T20:22:47.617Z,17.10
2018-06-18T20:25:17.989Z,17.00
2018-06-18T20:27:46.433Z,17.00
2018-06-18T20:30:14.610Z,16.90
2018-06-18T20:32:42.801Z,16.80
2018-06-18T20:35:18.478Z,16.70
2018-06-18T20:37:46.884Z,16.60
2018-06-18T20:40:15.140Z,16.60
2018-06-18T20:42:43.434Z,16.50
2018-06-18T20:45:11.622Z,16.40
2018-06-18T20:47:40.940Z,16.30
2018-06-18T20:50:12.541Z,16.30
2018-06-18T20:52:47.565Z,16.20
2018-06-18T20:55:16.007Z,16.20
2018-06-18T20:57:44.176Z,16.10
2018-06-18T21:00:12.358Z,16.10
2018-06-18T21:02:40.616Z,16.00
2018-06-18T21:05:08.746Z,16.00
2018-06-18T21:07:36.920Z,15.90
2018-06-18T21:10:05.479Z,15.80
2018-06-18T21:12:33.748Z,15.80
2018-06-18T21:15:01.988Z,15.70
2018-06-18T21:17:30.213Z,15.70
2018-06-18T21:19:58.582Z,15.70
2018-06-18T21:22:26.777Z,15.60
2018-06-18T21:24:54.948Z,15.60
2018-06-18T21:27:23.221Z,15.60
2018-06-18T21:29:51.421Z,15.50
2018-06-18T21:32:19.614Z,15.50
2018-06-18T21:34:48.013Z,15.40
2018-06-18T21:37:16.237Z,15.40
2018-06-18T21:39:44.435Z,15.30
2018-06-18T21:42:12.607Z,15.30
2018-06-18T21:44:55.235Z,15.30
2018-06-18T21:47:23.432Z,15.20
2018-06-18T21:49:51.621Z,15.10
2018-06-18T21:52:19.798Z,15.10
2018-06-18T21:54:47.980Z,15.10
2018-06-18T21:57:16.224Z,15.10
2018-06-18T21:59:44.989Z,15.10
2018-06-18T22:02:13.161Z,15.00
2018-06-18T22:04:41.350Z,15.00
2018-06-18T22:07:09.533Z,15.00
2018-06-18T22:09:37.725Z,14.90
2018-06-18T22:12:06.090Z,14.90
2018-06-18T22:14:34.287Z,14.90
2018-06-18T22:17:02.489Z,14.80
2018-06-18T22:19:30.725Z,14.80
2018-06-18T22:21:58.889Z,14.70
2018-06-18T22:24:27.123Z,14.70
2018-06-18T22:29:23.253Z,14.60
2018-06-18T22:31:51.455Z,14.60
2018-06-18T22:34:19.717Z,14.60
2018-06-18T22:36:47.816Z,14.60
2018-06-18T22:39:16.025Z,14.50
2018-06-18T22:41:44.209Z,14.50
2018-06-18T22:44:12.459Z,14.50
2018-06-18T22:46:40.649Z,14.40
2018-06-18T22:49:08.896Z,14.40
2018-06-18T22:51:37.122Z,14.40
2018-06-18T22:54:05.451Z,14.30
2018-06-18T22:56:33.502Z,14.30
2018-06-18T22:59:01.695Z,14.30
2018-06-18T23:01:29.883Z,14.30
2018-06-18T23:03:58.068Z,14.20
2018-06-18T23:06:26.242Z,14.20
2018-06-18T23:08:54.421Z,14.20
2018-06-18T23:11:22.606Z,14.20
2018-06-18T23:13:50.809Z,14.10
2018-06-18T23:16:19.010Z,14.10
2018-06-18T23:18:47.202Z,14.10
2018-06-18T23:21:15.357Z,14.10
2018-06-18T23:23:43.570Z,14.00
2018-06-18T23:26:11.767Z,14.00
2018-06-18T23:28:47.733Z,14.00
2018-06-18T23:31:15.954Z,14.00
2018-06-18T23:33:44.154Z,13.90
2018-06-18T23:36:12.354Z,13.90
2018-06-18T23:38:40.537Z,13.90
2018-06-18T23:41:08.725Z,13.80
2018-06-18T23:43:36.913Z,13.80
2018-06-18T23:46:05.263Z,13.80
2018-06-18T23:48:33.447Z,13.80
2018-06-18T23:51:01.698Z,13.70
2018-06-18T23:53:29.932Z,13.80
2018-06-18T23:55:58.131Z,13.70
2018-06-18T23:58:26.445Z,13.70
